Hernando, MS (38632)

4:19 AM CDT on October 01, 2014 (GMT -0500)
Oak Manor S/D | Change Station
CLOSE
Current Station
Personal Weather Station
Location: Hernando, MS
Elevation: 259 ft
Nearby Weather Stations

Elev 259 ft 34.82 °N, 90.04 °W | Updated 9 seconds ago

Clear
Clear
62.1 °F
Feels Like 62.1 °F
N
0.0
Wind Variable Wind from NNW
Gusts 0.0 mph

Today
High -- | Low -- °F
--% Chance of Precip.
Yesterday
High -- | Low -- °F
Precip. -- in
6:54 AM 6:44 PM
Waxing Crescent, 45% visible
Pressure 29.88 in
Visibility 10.0 miles
Clouds Few 25000 ft
Dew Point 61 °F
Humidity 95%
Rainfall 0.00 in
Snow Depth Not available.
UV 0 out of 12
Pollen 5.40 out of 12
Ozone Good
PM2.5 Moderate
Flu Activity Not available.
METAR KMEM 010754Z 14003KT 10SM FEW250 22/16 A2989 RMK AO2 SLP116 T02170156 $

More Conditions Fewer Conditions

Pressure 29.88 in
Visibility 10.0 miles
Clouds Few 25000 ft
Dew Point 61 °F
Humidity 95%
Rainfall 0.00 in
Snow Depth Not available.
UV 0 out of 12
Pollen 5.40 out of 12
Ozone Good
PM2.5 Moderate
Flu Activity Not available.
METAR KMEM 010754Z 14003KT 10SM FEW250 22/16 A2989 RMK AO2 SLP116 T02170156 $

More Conditions Fewer Conditions

10-Day Weather Forecast

Almanac

Astronomy

Oct. 01, 2014 Rise Set
Actual Time 6:54 AM CDT 6:44 PM CDT
Civil Twilight 6:29 AM CDT 7:09 PM CDT
Nautical Twilight 6:00 AM CDT 7:38 PM CDT
Astronomical Twilight 5:30 AM CDT 8:07 PM CDT
Moon 1:45 PM CDT No Moon Set
Length of Visible Light 12h 39m
Length of Day
11h 49m
Tomorrow will be 2m 10s shorter.
Waxing Crescent, 45% of the Moon is Illuminated
Today
Waxing Crescent
Oct 1
First Quarter
Oct 8
Full
Oct 15
Last Quarter
Oct 23
New

Today's Extremes

State Highs State Lows

Community

WunderPhotos

Upload Photos

1,757,902 photos uploaded!

WunderBlogs® & News

Nearby

Air Quality

  Air Quality AQ Index Pollutant
Yesterday Moderate
OZONE
Yesterday Moderate
PM2.5
Current Moderate
PM2.5
Current Good
OZONE
Wednesday Good
OZONE
Wednesday Good
PM2.5
Thursday Moderate
PM2.5
Thursday Good
OZONE

Snow Depth

Station Depth Elevation
No new snow has been reported.

Earthquake Activity

City Distance Mag. Time & Date
No recent earthquake activity has been reported nearby.
Minimum magnitude displayed is 2.5.

Coastal Water Temperatures

Place Temperature
No Stations Reporting

Nearby Weather Stations